sensor_id;sensor_type;location;lat;lon;timestamp;temperature;humidity
58161;DHT22;49345;47.428;9.892;2022-09-23T00:02:00;6.10;99.90
58161;DHT22;49345;47.428;9.892;2022-09-23T00:04:26;6.20;99.90
58161;DHT22;49345;47.428;9.892;2022-09-23T00:06:51;6.20;99.90
58161;DHT22;49345;47.428;9.892;2022-09-23T00:09:17;6.20;99.90
58161;DHT22;49345;47.428;9.892;2022-09-23T00:11:42;6.10;99.90
58161;DHT22;49345;47.428;9.892;2022-09-23T00:14:08;6.10;99.90
58161;DHT22;49345;47.428;9.892;2022-09-23T00:16:34;6.10;99.90
58161;DHT22;49345;47.428;9.892;2022-09-23T00:19:00;6.10;99.90
58161;DHT22;49345;47.428;9.892;2022-09-23T00:21:26;6.10;99.90
58161;DHT22;49345;47.428;9.892;2022-09-23T00:23:51;6.00;99.90
58161;DHT22;49345;47.428;9.892;2022-09-23T00:26:18;6.00;99.90
58161;DHT22;49345;47.428;9.892;2022-09-23T00:28:45;6.00;99.90
58161;DHT22;49345;47.428;9.892;2022-09-23T00:31:11;6.00;99.90
58161;DHT22;49345;47.428;9.892;2022-09-23T00:33:38;6.00;99.90
58161;DHT22;49345;47.428;9.892;2022-09-23T00:36:05;6.00;99.90
58161;DHT22;49345;47.428;9.892;2022-09-23T00:38:31;6.00;99.90
58161;DHT22;49345;47.428;9.892;2022-09-23T00:40:58;6.00;99.90
58161;DHT22;49345;47.428;9.892;2022-09-23T00:46:22;6.00;99.90
58161;DHT22;49345;47.428;9.892;2022-09-23T00:48:50;5.90;99.90
58161;DHT22;49345;47.428;9.892;2022-09-23T00:51:19;6.00;99.90
58161;DHT22;49345;47.428;9.892;2022-09-23T00:53:46;5.90;99.90
58161;DHT22;49345;47.428;9.892;2022-09-23T00:56:12;5.90;99.90
58161;DHT22;49345;47.428;9.892;2022-09-23T00:58:38;5.90;99.90
58161;DHT22;49345;47.428;9.892;2022-09-23T01:01:05;5.80;99.90
58161;DHT22;49345;47.428;9.892;2022-09-23T01:03:30;5.80;99.90
58161;DHT22;49345;47.428;9.892;2022-09-23T01:05:56;5.80;99.90
58161;DHT22;49345;47.428;9.892;2022-09-23T01:08:22;5.80;99.90
58161;DHT22;49345;47.428;9.892;2022-09-23T01:10:53;5.70;99.90
58161;DHT22;49345;47.428;9.892;2022-09-23T01:19:03;5.70;99.90
58161;DHT22;49345;47.428;9.892;2022-09-23T01:24:29;5.60;99.90
58161;DHT22;49345;47.428;9.892;2022-09-23T01:27:03;5.60;99.90
58161;DHT22;49345;47.428;9.892;2022-09-23T01:35:12;5.60;99.90
58161;DHT22;49345;47.428;9.892;2022-09-23T01:37:45;5.60;99.90
58161;DHT22;49345;47.428;9.892;2022-09-23T01:42:57;5.60;99.90
58161;DHT22;49345;47.428;9.892;2022-09-23T01:45:29;5.60;99.90
58161;DHT22;49345;47.428;9.892;2022-09-23T01:48:00;5.60;99.90
58161;DHT22;49345;47.428;9.892;2022-09-23T01:50:28;5.60;99.90
58161;DHT22;49345;47.428;9.892;2022-09-23T02:07:07;5.40;99.90
58161;DHT22;49345;47.428;9.892;2022-09-23T02:09:35;5.50;99.90
58161;DHT22;49345;47.428;9.892;2022-09-23T02:12:02;5.30;99.90
58161;DHT22;49345;47.428;9.892;2022-09-23T02:14:32;5.40;99.90
58161;DHT22;49345;47.428;9.892;2022-09-23T02:17:00;5.40;99.90
58161;DHT22;49345;47.428;9.892;2022-09-23T02:22:09;5.30;99.90
58161;DHT22;49345;47.428;9.892;2022-09-23T02:24:37;5.30;99.90
58161;DHT22;49345;47.428;9.892;2022-09-23T02:29:52;5.30;99.90
58161;DHT22;49345;47.428;9.892;2022-09-23T02:32:23;5.30;99.90
58161;DHT22;49345;47.428;9.892;2022-09-23T02:35:00;5.40;99.90
58161;DHT22;49345;47.428;9.892;2022-09-23T02:45:41;5.40;99.90
58161;DHT22;49345;47.428;9.892;2022-09-23T02:48:08;5.40;99.90
58161;DHT22;49345;47.428;9.892;2022-09-23T02:50:36;5.30;99.90
58161;DHT22;49345;47.428;9.892;2022-09-23T02:53:02;5.30;99.90
58161;DHT22;49345;47.428;9.892;2022-09-23T02:55:29;5.30;99.90
58161;DHT22;49345;47.428;9.892;2022-09-23T02:57:57;5.30;99.90
58161;DHT22;49345;47.428;9.892;2022-09-23T03:00:25;5.30;99.90
58161;DHT22;49345;47.428;9.892;2022-09-23T03:03:02;5.30;99.90
58161;DHT22;49345;47.428;9.892;2022-09-23T03:05:32;5.30;99.90
58161;DHT22;49345;47.428;9.892;2022-09-23T03:08:05;5.20;99.90
58161;DHT22;49345;47.428;9.892;2022-09-23T03:10:41;5.20;99.90
58161;DHT22;49345;47.428;9.892;2022-09-23T03:16:04;5.20;99.90
58161;DHT22;49345;47.428;9.892;2022-09-23T03:18:36;5.20;99.90
58161;DHT22;49345;47.428;9.892;2022-09-23T03:21:05;5.20;99.90
58161;DHT22;49345;47.428;9.892;2022-09-23T03:23:33;5.10;99.90
58161;DHT22;49345;47.428;9.892;2022-09-23T03:26:01;5.10;99.90
58161;DHT22;49345;47.428;9.892;2022-09-23T03:28:29;5.10;99.90
58161;DHT22;49345;47.428;9.892;2022-09-23T03:30:55;5.10;99.90
58161;DHT22;49345;47.428;9.892;2022-09-23T03:33:24;5.10;99.90
58161;DHT22;49345;47.428;9.892;2022-09-23T03:35:53;5.10;99.90
58161;DHT22;49345;47.428;9.892;2022-09-23T03:38:48;5.10;99.90
58161;DHT22;49345;47.428;9.892;2022-09-23T03:41:17;5.00;99.90
58161;DHT22;49345;47.428;9.892;2022-09-23T03:43:47;5.00;99.90
58161;DHT22;49345;47.428;9.892;2022-09-23T03:46:13;5.00;99.90
58161;DHT22;49345;47.428;9.892;2022-09-23T03:48:40;5.00;99.90
58161;DHT22;49345;47.428;9.892;2022-09-23T03:51:12;5.10;99.90
58161;DHT22;49345;47.428;9.892;2022-09-23T03:53:41;5.00;99.90
58161;DHT22;49345;47.428;9.892;2022-09-23T03:56:07;5.00;99.90
58161;DHT22;49345;47.428;9.892;2022-09-23T03:58:32;5.00;99.90
58161;DHT22;49345;47.428;9.892;2022-09-23T04:00:58;5.00;99.90
58161;DHT22;49345;47.428;9.892;2022-09-23T04:03:23;5.00;99.90
58161;DHT22;49345;47.428;9.892;2022-09-23T04:05:53;4.90;99.90
58161;DHT22;49345;47.428;9.892;2022-09-23T04:08:19;5.00;99.90
58161;DHT22;49345;47.428;9.892;2022-09-23T04:10:44;5.00;99.90
58161;DHT22;49345;47.428;9.892;2022-09-23T04:13:10;5.00;99.90
58161;DHT22;49345;47.428;9.892;2022-09-23T04:15:35;4.90;99.90
58161;DHT22;49345;47.428;9.892;2022-09-23T04:18:01;4.90;99.90
58161;DHT22;49345;47.428;9.892;2022-09-23T04:20:26;4.90;99.90
58161;DHT22;49345;47.428;9.892;2022-09-23T04:22:53;4.90;99.90
58161;DHT22;49345;47.428;9.892;2022-09-23T04:25:18;4.90;99.90
58161;DHT22;49345;47.428;9.892;2022-09-23T04:27:44;4.80;99.90
58161;DHT22;49345;47.428;9.892;2022-09-23T04:30:09;4.80;99.90
58161;DHT22;49345;47.428;9.892;2022-09-23T04:32:35;4.90;99.90
58161;DHT22;49345;47.428;9.892;2022-09-23T04:35:01;4.80;99.90
58161;DHT22;49345;47.428;9.892;2022-09-23T04:37:26;4.80;99.90
58161;DHT22;49345;47.428;9.892;2022-09-23T04:39:52;4.80;99.90
58161;DHT22;49345;47.428;9.892;2022-09-23T04:42:18;4.80;99.90
58161;DHT22;49345;47.428;9.892;2022-09-23T04:44:43;4.80;99.90
58161;DHT22;49345;47.428;9.892;2022-09-23T04:47:09;4.80;99.90
58161;DHT22;49345;47.428;9.892;2022-09-23T04:49:34;4.80;99.90
58161;DHT22;49345;47.428;9.892;2022-09-23T04:52:00;4.80;99.90
58161;DHT22;49345;47.428;9.892;2022-09-23T04:54:26;4.80;99.90
58161;DHT22;49345;47.428;9.892;2022-09-23T04:56:51;4.80;99.90
58161;DHT22;49345;47.428;9.892;2022-09-23T04:59:17;4.80;99.90
58161;DHT22;49345;47.428;9.892;2022-09-23T05:01:43;4.80;99.90
58161;DHT22;49345;47.428;9.892;2022-09-23T05:04:09;4.80;99.90
58161;DHT22;49345;47.428;9.892;2022-09-23T05:06:38;4.80;99.90
58161;DHT22;49345;47.428;9.892;2022-09-23T05:09:04;4.80;99.90
58161;DHT22;49345;47.428;9.892;2022-09-23T05:11:30;4.60;99.90
58161;DHT22;49345;47.428;9.892;2022-09-23T05:13:56;4.60;99.90
58161;DHT22;49345;47.428;9.892;2022-09-23T05:16:21;4.60;99.90
58161;DHT22;49345;47.428;9.892;2022-09-23T05:18:48;4.50;99.90
58161;DHT22;49345;47.428;9.892;2022-09-23T05:21:14;4.50;99.90
58161;DHT22;49345;47.428;9.892;2022-09-23T05:23:41;4.60;99.90
58161;DHT22;49345;47.428;9.892;2022-09-23T05:26:07;4.60;99.90
58161;DHT22;49345;47.428;9.892;2022-09-23T05:28:34;4.60;99.90
58161;DHT22;49345;47.428;9.892;2022-09-23T05:31:00;4.60;99.90
58161;DHT22;49345;47.428;9.892;2022-09-23T05:33:27;4.60;99.90
58161;DHT22;49345;47.428;9.892;2022-09-23T05:35:52;4.60;99.90
58161;DHT22;49345;47.428;9.892;2022-09-23T05:38:18;4.70;99.90
58161;DHT22;49345;47.428;9.892;2022-09-23T05:40:43;4.60;99.90
58161;DHT22;49345;47.428;9.892;2022-09-23T05:43:09;4.60;99.90
58161;DHT22;49345;47.428;9.892;2022-09-23T05:45:35;4.60;99.90
58161;DHT22;49345;47.428;9.892;2022-09-23T05:48:00;4.70;99.90
58161;DHT22;49345;47.428;9.892;2022-09-23T05:50:26;4.70;99.90
58161;DHT22;49345;47.428;9.892;2022-09-23T05:52:51;4.70;99.90
58161;DHT22;49345;47.428;9.892;2022-09-23T05:55:17;4.70;99.90
58161;DHT22;49345;47.428;9.892;2022-09-23T05:57:42;4.80;99.90
58161;DHT22;49345;47.428;9.892;2022-09-23T06:00:08;4.90;99.90
58161;DHT22;49345;47.428;9.892;2022-09-23T06:02:34;5.00;99.90
58161;DHT22;49345;47.428;9.892;2022-09-23T06:04:59;5.00;99.90
58161;DHT22;49345;47.428;9.892;2022-09-23T06:07:25;5.00;99.90
58161;DHT22;49345;47.428;9.892;2022-09-23T06:09:51;5.00;99.90
58161;DHT22;49345;47.428;9.892;2022-09-23T06:12:18;5.10;99.90
58161;DHT22;49345;47.428;9.892;2022-09-23T06:14:43;5.10;99.90
58161;DHT22;49345;47.428;9.892;2022-09-23T06:17:12;5.20;99.90
58161;DHT22;49345;47.428;9.892;2022-09-23T06:19:37;5.30;99.90
58161;DHT22;49345;47.428;9.892;2022-09-23T06:22:03;5.30;99.90
58161;DHT22;49345;47.428;9.892;2022-09-23T06:24:28;5.30;99.90
58161;DHT22;49345;47.428;9.892;2022-09-23T06:26:54;5.40;99.90
58161;DHT22;49345;47.428;9.892;2022-09-23T06:29:20;5.50;99.90
58161;DHT22;49345;47.428;9.892;2022-09-23T06:31:47;5.50;99.90
58161;DHT22;49345;47.428;9.892;2022-09-23T06:34:13;5.60;99.90
58161;DHT22;49345;47.428;9.892;2022-09-23T06:36:39;5.70;99.90
58161;DHT22;49345;47.428;9.892;2022-09-23T06:39:05;5.70;99.90
58161;DHT22;49345;47.428;9.892;2022-09-23T06:41:30;5.80;99.90
58161;DHT22;49345;47.428;9.892;2022-09-23T06:43:56;5.90;99.90
58161;DHT22;49345;47.428;9.892;2022-09-23T06:46:22;6.00;99.90
58161;DHT22;49345;47.428;9.892;2022-09-23T06:48:47;6.10;99.90
58161;DHT22;49345;47.428;9.892;2022-09-23T06:51:15;6.20;99.90
58161;DHT22;49345;47.428;9.892;2022-09-23T06:53:44;6.30;99.90
58161;DHT22;49345;47.428;9.892;2022-09-23T06:56:09;6.40;99.90
58161;DHT22;49345;47.428;9.892;2022-09-23T06:58:36;6.50;99.90
58161;DHT22;49345;47.428;9.892;2022-09-23T07:01:04;6.60;99.90
58161;DHT22;49345;47.428;9.892;2022-09-23T07:03:31;6.70;99.90
58161;DHT22;49345;47.428;9.892;2022-09-23T07:05:57;6.80;99.90
58161;DHT22;49345;47.428;9.892;2022-09-23T07:08:23;6.90;99.90
58161;DHT22;49345;47.428;9.892;2022-09-23T07:10:50;7.00;99.90
58161;DHT22;49345;47.428;9.892;2022-09-23T07:13:15;7.10;99.90
58161;DHT22;49345;47.428;9.892;2022-09-23T07:15:41;7.20;99.90
58161;DHT22;49345;47.428;9.892;2022-09-23T07:18:06;7.30;99.90
58161;DHT22;49345;47.428;9.892;2022-09-23T07:20:32;7.40;99.90
58161;DHT22;49345;47.428;9.892;2022-09-23T07:22:57;7.50;99.90
58161;DHT22;49345;47.428;9.892;2022-09-23T07:25:23;7.60;99.90
58161;DHT22;49345;47.428;9.892;2022-09-23T07:27:48;7.70;99.90
58161;DHT22;49345;47.428;9.892;2022-09-23T07:30:14;7.80;99.90
58161;DHT22;49345;47.428;9.892;2022-09-23T07:32:40;8.00;99.90
58161;DHT22;49345;47.428;9.892;2022-09-23T07:35:06;8.10;99.90
58161;DHT22;49345;47.428;9.892;2022-09-23T07:37:32;8.10;99.90
58161;DHT22;49345;47.428;9.892;2022-09-23T07:39:58;8.20;99.90
58161;DHT22;49345;47.428;9.892;2022-09-23T07:42:23;8.30;99.90
58161;DHT22;49345;47.428;9.892;2022-09-23T07:44:49;8.50;99.90
58161;DHT22;49345;47.428;9.892;2022-09-23T07:47:14;8.60;99.90
58161;DHT22;49345;47.428;9.892;2022-09-23T07:49:41;8.70;99.90
58161;DHT22;49345;47.428;9.892;2022-09-23T07:52:07;8.80;99.90
58161;DHT22;49345;47.428;9.892;2022-09-23T07:54:33;8.90;99.90
58161;DHT22;49345;47.428;9.892;2022-09-23T07:56:58;9.10;99.90
58161;DHT22;49345;47.428;9.892;2022-09-23T07:59:24;9.20;99.90
58161;DHT22;49345;47.428;9.892;2022-09-23T08:01:51;9.30;99.90
58161;DHT22;49345;47.428;9.892;2022-09-23T08:04:21;9.40;99.90
58161;DHT22;49345;47.428;9.892;2022-09-23T08:06:48;9.50;99.90
58161;DHT22;49345;47.428;9.892;2022-09-23T08:09:15;9.70;99.90
58161;DHT22;49345;47.428;9.892;2022-09-23T08:11:41;9.80;99.90
58161;DHT22;49345;47.428;9.892;2022-09-23T08:14:07;9.90;99.90
58161;DHT22;49345;47.428;9.892;2022-09-23T08:16:33;10.10;99.90
58161;DHT22;49345;47.428;9.892;2022-09-23T08:18:59;10.20;99.90
58161;DHT22;49345;47.428;9.892;2022-09-23T08:21:24;10.30;99.90
58161;DHT22;49345;47.428;9.892;2022-09-23T08:23:50;10.40;99.90
58161;DHT22;49345;47.428;9.892;2022-09-23T08:26:16;10.50;99.90
58161;DHT22;49345;47.428;9.892;2022-09-23T08:28:43;10.60;99.90
58161;DHT22;49345;47.428;9.892;2022-09-23T08:31:08;10.70;99.90
58161;DHT22;49345;47.428;9.892;2022-09-23T08:33:34;10.80;99.90
58161;DHT22;49345;47.428;9.892;2022-09-23T08:36:00;10.90;99.90
58161;DHT22;49345;47.428;9.892;2022-09-23T08:38:26;11.00;99.90
58161;DHT22;49345;47.428;9.892;2022-09-23T08:40:51;11.00;99.90
58161;DHT22;49345;47.428;9.892;2022-09-23T08:43:24;11.20;99.90
58161;DHT22;49345;47.428;9.892;2022-09-23T08:45:49;11.20;99.90
58161;DHT22;49345;47.428;9.892;2022-09-23T08:48:16;11.30;99.90
58161;DHT22;49345;47.428;9.892;2022-09-23T08:50:45;11.40;99.90
58161;DHT22;49345;47.428;9.892;2022-09-23T08:53:14;11.50;99.90
58161;DHT22;49345;47.428;9.892;2022-09-23T08:55:45;11.70;99.90
58161;DHT22;49345;47.428;9.892;2022-09-23T09:03:59;12.10;99.90
58161;DHT22;49345;47.428;9.892;2022-09-23T09:06:27;12.10;99.90
58161;DHT22;49345;47.428;9.892;2022-09-23T09:08:56;12.20;99.90
58161;DHT22;49345;47.428;9.892;2022-09-23T09:11:27;12.40;99.90
58161;DHT22;49345;47.428;9.892;2022-09-23T09:14:00;12.50;99.90
58161;DHT22;49345;47.428;9.892;2022-09-23T09:19:12;12.70;99.90
58161;DHT22;49345;47.428;9.892;2022-09-23T09:21:41;12.80;99.90
58161;DHT22;49345;47.428;9.892;2022-09-23T09:24:16;13.00;99.90
58161;DHT22;49345;47.428;9.892;2022-09-23T09:26:42;13.20;99.90
58161;DHT22;49345;47.428;9.892;2022-09-23T09:29:09;13.40;99.90
58161;DHT22;49345;47.428;9.892;2022-09-23T09:37:08;13.90;99.90
58161;DHT22;49345;47.428;9.892;2022-09-23T09:39:35;14.00;99.90
58161;DHT22;49345;47.428;9.892;2022-09-23T09:42:02;14.20;99.90
58161;DHT22;49345;47.428;9.892;2022-09-23T09:50:09;14.70;99.90
58161;DHT22;49345;47.428;9.892;2022-09-23T09:52:35;14.90;99.90
58161;DHT22;49345;47.428;9.892;2022-09-23T09:57:57;15.30;99.90
58161;DHT22;49345;47.428;9.892;2022-09-23T10:05:54;15.80;99.90
58161;DHT22;49345;47.428;9.892;2022-09-23T10:08:24;16.30;99.90
58161;DHT22;49345;47.428;9.892;2022-09-23T10:13:32;16.60;99.40
58161;DHT22;49345;47.428;9.892;2022-09-23T10:15:58;16.70;99.60
58161;DHT22;49345;47.428;9.892;2022-09-23T10:21:09;17.00;98.90
58161;DHT22;49345;47.428;9.892;2022-09-23T10:23:42;17.30;98.70
58161;DHT22;49345;47.428;9.892;2022-09-23T10:26:09;17.30;98.80
58161;DHT22;49345;47.428;9.892;2022-09-23T10:31:25;17.70;96.70
58161;DHT22;49345;47.428;9.892;2022-09-23T10:36:35;17.90;95.60
58161;DHT22;49345;47.428;9.892;2022-09-23T10:39:01;18.10;95.00
58161;DHT22;49345;47.428;9.892;2022-09-23T10:42:00;18.20;95.50
58161;DHT22;49345;47.428;9.892;2022-09-23T10:47:47;18.50;92.80
58161;DHT22;49345;47.428;9.892;2022-09-23T10:50:22;18.70;91.90
58161;DHT22;49345;47.428;9.892;2022-09-23T11:09:31;19.30;85.60
58161;DHT22;49345;47.428;9.892;2022-09-23T11:26:29;19.20;86.10
58161;DHT22;49345;47.428;9.892;2022-09-23T11:35:00;19.30;84.80
58161;DHT22;49345;47.428;9.892;2022-09-23T11:37:29;19.40;84.10
58161;DHT22;49345;47.428;9.892;2022-09-23T11:42:46;19.40;83.60
58161;DHT22;49345;47.428;9.892;2022-09-23T11:45:16;19.30;83.70
58161;DHT22;49345;47.428;9.892;2022-09-23T11:47:46;19.40;83.70
58161;DHT22;49345;47.428;9.892;2022-09-23T11:52:57;19.20;84.20
58161;DHT22;49345;47.428;9.892;2022-09-23T11:55:27;19.30;85.50
58161;DHT22;49345;47.428;9.892;2022-09-23T11:57:58;19.40;85.10
58161;DHT22;49345;47.428;9.892;2022-09-23T12:00:27;19.30;83.00
58161;DHT22;49345;47.428;9.892;2022-09-23T12:03:07;19.40;82.80
58161;DHT22;49345;47.428;9.892;2022-09-23T12:05:38;19.30;85.60
58161;DHT22;49345;47.428;9.892;2022-09-23T12:08:06;19.30;85.40
58161;DHT22;49345;47.428;9.892;2022-09-23T12:10:37;19.30;85.10
58161;DHT22;49345;47.428;9.892;2022-09-23T12:13:14;19.20;86.80
58161;DHT22;49345;47.428;9.892;2022-09-23T12:27:16;19.10;87.50
58161;DHT22;49345;47.428;9.892;2022-09-23T12:29:47;19.00;86.60
58161;DHT22;49345;47.428;9.892;2022-09-23T12:32:16;18.90;88.10
58161;DHT22;49345;47.428;9.892;2022-09-23T12:34:42;18.80;88.90
58161;DHT22;49345;47.428;9.892;2022-09-23T12:37:21;18.80;86.40
58161;DHT22;49345;47.428;9.892;2022-09-23T12:39:47;18.90;84.30
58161;DHT22;49345;47.428;9.892;2022-09-23T12:42:14;19.00;83.50
58161;DHT22;49345;47.428;9.892;2022-09-23T12:44:42;19.00;85.50
58161;DHT22;49345;47.428;9.892;2022-09-23T12:49:56;19.00;89.40
58161;DHT22;49345;47.428;9.892;2022-09-23T12:52:25;18.90;89.60
58161;DHT22;49345;47.428;9.892;2022-09-23T12:54:54;18.80;88.50
58161;DHT22;49345;47.428;9.892;2022-09-23T13:03:00;18.70;85.10
58161;DHT22;49345;47.428;9.892;2022-09-23T13:05:57;18.70;82.60
58161;DHT22;49345;47.428;9.892;2022-09-23T13:08:54;18.60;85.60
58161;DHT22;49345;47.428;9.892;2022-09-23T13:11:21;18.70;89.70
58161;DHT22;49345;47.428;9.892;2022-09-23T13:13:47;18.60;89.90
58161;DHT22;49345;47.428;9.892;2022-09-23T13:22:06;18.50;90.10
58161;DHT22;49345;47.428;9.892;2022-09-23T13:24:34;18.50;90.60
58161;DHT22;49345;47.428;9.892;2022-09-23T13:29:43;18.40;90.90
58161;DHT22;49345;47.428;9.892;2022-09-23T13:32:10;18.40;91.00
58161;DHT22;49345;47.428;9.892;2022-09-23T13:34:36;18.50;90.90
58161;DHT22;49345;47.428;9.892;2022-09-23T13:42:57;18.60;88.10
58161;DHT22;49345;47.428;9.892;2022-09-23T13:45:24;18.50;90.60
58161;DHT22;49345;47.428;9.892;2022-09-23T13:47:50;18.50;90.30
58161;DHT22;49345;47.428;9.892;2022-09-23T13:50:19;18.40;90.90
58161;DHT22;49345;47.428;9.892;2022-09-23T13:52:46;18.40;90.60
58161;DHT22;49345;47.428;9.892;2022-09-23T13:55:25;18.50;90.70
58161;DHT22;49345;47.428;9.892;2022-09-23T14:00:44;18.40;90.80
58161;DHT22;49345;47.428;9.892;2022-09-23T14:06:08;18.50;90.80
58161;DHT22;49345;47.428;9.892;2022-09-23T14:08:34;18.50;90.80
58161;DHT22;49345;47.428;9.892;2022-09-23T14:11:02;18.50;91.40
58161;DHT22;49345;47.428;9.892;2022-09-23T14:13:29;18.40;91.40
58161;DHT22;49345;47.428;9.892;2022-09-23T14:15:58;18.30;91.70
58161;DHT22;49345;47.428;9.892;2022-09-23T14:21:24;18.30;92.00
58161;DHT22;49345;47.428;9.892;2022-09-23T14:23:50;18.30;91.70
58161;DHT22;49345;47.428;9.892;2022-09-23T14:26:15;18.40;91.50
58161;DHT22;49345;47.428;9.892;2022-09-23T14:28:41;18.30;92.10
58161;DHT22;49345;47.428;9.892;2022-09-23T14:31:07;18.20;91.30
58161;DHT22;49345;47.428;9.892;2022-09-23T14:33:33;18.20;91.50
58161;DHT22;49345;47.428;9.892;2022-09-23T14:36:05;18.20;91.20
58161;DHT22;49345;47.428;9.892;2022-09-23T14:38:33;18.20;91.30
58161;DHT22;49345;47.428;9.892;2022-09-23T14:41:39;18.20;91.10
58161;DHT22;49345;47.428;9.892;2022-09-23T14:44:06;18.20;91.30
58161;DHT22;49345;47.428;9.892;2022-09-23T14:46:34;18.20;91.80
58161;DHT22;49345;47.428;9.892;2022-09-23T14:49:02;18.20;92.10
58161;DHT22;49345;47.428;9.892;2022-09-23T14:51:29;18.20;92.00
58161;DHT22;49345;47.428;9.892;2022-09-23T14:53:55;18.30;91.90
58161;DHT22;49345;47.428;9.892;2022-09-23T14:56:41;18.20;92.00
58161;DHT22;49345;47.428;9.892;2022-09-23T14:59:18;18.30;91.80
58161;DHT22;49345;47.428;9.892;2022-09-23T15:01:47;18.30;91.90
58161;DHT22;49345;47.428;9.892;2022-09-23T15:04:17;18.30;92.40
58161;DHT22;49345;47.428;9.892;2022-09-23T15:06:53;18.40;92.50
58161;DHT22;49345;47.428;9.892;2022-09-23T15:09:21;18.30;92.60
58161;DHT22;49345;47.428;9.892;2022-09-23T15:11:50;18.30;92.40
58161;DHT22;49345;47.428;9.892;2022-09-23T15:14:16;18.20;92.60
58161;DHT22;49345;47.428;9.892;2022-09-23T15:16:42;18.40;93.00
58161;DHT22;49345;47.428;9.892;2022-09-23T15:19:11;18.30;92.90
58161;DHT22;49345;47.428;9.892;2022-09-23T15:21:40;18.30;93.10
58161;DHT22;49345;47.428;9.892;2022-09-23T15:27:24;18.40;93.90
58161;DHT22;49345;47.428;9.892;2022-09-23T15:29:48;18.30;94.20
58161;DHT22;49345;47.428;9.892;2022-09-23T15:32:14;18.30;93.80
58161;DHT22;49345;47.428;9.892;2022-09-23T15:34:39;18.30;93.60
58161;DHT22;49345;47.428;9.892;2022-09-23T15:37:05;18.40;94.50
58161;DHT22;49345;47.428;9.892;2022-09-23T15:39:32;18.40;94.70
58161;DHT22;49345;47.428;9.892;2022-09-23T15:41:58;18.40;95.00
58161;DHT22;49345;47.428;9.892;2022-09-23T15:44:23;18.40;95.30
58161;DHT22;49345;47.428;9.892;2022-09-23T15:46:53;18.40;95.30
58161;DHT22;49345;47.428;9.892;2022-09-23T15:49:30;18.30;95.00
58161;DHT22;49345;47.428;9.892;2022-09-23T15:51:58;18.20;95.00
58161;DHT22;49345;47.428;9.892;2022-09-23T15:54:24;18.20;95.50
58161;DHT22;49345;47.428;9.892;2022-09-23T15:56:49;18.20;95.80
58161;DHT22;49345;47.428;9.892;2022-09-23T15:59:15;18.20;95.40
58161;DHT22;49345;47.428;9.892;2022-09-23T16:01:40;18.20;98.80
58161;DHT22;49345;47.428;9.892;2022-09-23T16:04:08;18.10;99.90
58161;DHT22;49345;47.428;9.892;2022-09-23T16:06:34;17.80;99.90
58161;DHT22;49345;47.428;9.892;2022-09-23T16:09:00;17.60;99.90
58161;DHT22;49345;47.428;9.892;2022-09-23T16:11:26;17.40;99.90
58161;DHT22;49345;47.428;9.892;2022-09-23T16:13:56;17.20;99.90
58161;DHT22;49345;47.428;9.892;2022-09-23T16:16:22;17.10;99.90
58161;DHT22;49345;47.428;9.892;2022-09-23T16:18:48;17.00;99.90
58161;DHT22;49345;47.428;9.892;2022-09-23T16:21:16;16.90;99.90
58161;DHT22;49345;47.428;9.892;2022-09-23T16:23:42;16.80;99.90
58161;DHT22;49345;47.428;9.892;2022-09-23T16:26:19;16.70;99.90
58161;DHT22;49345;47.428;9.892;2022-09-23T16:28:46;16.50;99.90
58161;DHT22;49345;47.428;9.892;2022-09-23T16:31:12;16.40;99.90
58161;DHT22;49345;47.428;9.892;2022-09-23T16:33:41;16.30;99.90
58161;DHT22;49345;47.428;9.892;2022-09-23T16:36:08;16.20;99.90
58161;DHT22;49345;47.428;9.892;2022-09-23T16:38:36;16.00;99.90
58161;DHT22;49345;47.428;9.892;2022-09-23T16:41:02;15.80;99.90
58161;DHT22;49345;47.428;9.892;2022-09-23T16:43:28;15.70;99.90
58161;DHT22;49345;47.428;9.892;2022-09-23T16:46:04;15.60;99.90
58161;DHT22;49345;47.428;9.892;2022-09-23T16:48:30;15.60;99.90
58161;DHT22;49345;47.428;9.892;2022-09-23T16:50:55;15.50;99.90
58161;DHT22;49345;47.428;9.892;2022-09-23T16:53:21;15.40;99.90
58161;DHT22;49345;47.428;9.892;2022-09-23T16:55:47;15.30;99.90
58161;DHT22;49345;47.428;9.892;2022-09-23T16:58:12;15.20;99.90
58161;DHT22;49345;47.428;9.892;2022-09-23T17:00:38;15.10;99.90
58161;DHT22;49345;47.428;9.892;2022-09-23T17:03:33;15.00;99.90
58161;DHT22;49345;47.428;9.892;2022-09-23T17:06:06;14.90;99.90
58161;DHT22;49345;47.428;9.892;2022-09-23T17:08:32;14.80;99.90
58161;DHT22;49345;47.428;9.892;2022-09-23T17:10:58;14.80;99.90
58161;DHT22;49345;47.428;9.892;2022-09-23T17:13:24;14.60;99.90
58161;DHT22;49345;47.428;9.892;2022-09-23T17:15:50;14.50;99.90
58161;DHT22;49345;47.428;9.892;2022-09-23T17:18:16;14.30;99.90
58161;DHT22;49345;47.428;9.892;2022-09-23T17:20:42;14.30;99.90
58161;DHT22;49345;47.428;9.892;2022-09-23T17:23:07;14.10;99.90
58161;DHT22;49345;47.428;9.892;2022-09-23T17:25:33;13.90;99.90
58161;DHT22;49345;47.428;9.892;2022-09-23T17:28:00;13.90;99.90
58161;DHT22;49345;47.428;9.892;2022-09-23T17:30:25;13.80;99.90
58161;DHT22;49345;47.428;9.892;2022-09-23T17:32:51;13.80;99.90
58161;DHT22;49345;47.428;9.892;2022-09-23T17:35:17;13.70;99.90
58161;DHT22;49345;47.428;9.892;2022-09-23T17:37:44;13.60;99.90
58161;DHT22;49345;47.428;9.892;2022-09-23T17:40:11;13.50;99.90
58161;DHT22;49345;47.428;9.892;2022-09-23T17:42:38;13.50;99.90
58161;DHT22;49345;47.428;9.892;2022-09-23T17:45:06;13.40;99.90
58161;DHT22;49345;47.428;9.892;2022-09-23T17:47:31;13.30;99.90
58161;DHT22;49345;47.428;9.892;2022-09-23T17:49:57;13.30;99.90
58161;DHT22;49345;47.428;9.892;2022-09-23T17:52:23;13.20;99.90
58161;DHT22;49345;47.428;9.892;2022-09-23T17:54:48;13.10;99.90
58161;DHT22;49345;47.428;9.892;2022-09-23T17:57:14;13.10;99.90
58161;DHT22;49345;47.428;9.892;2022-09-23T17:59:39;13.00;99.90
58161;DHT22;49345;47.428;9.892;2022-09-23T18:02:05;13.00;99.90
58161;DHT22;49345;47.428;9.892;2022-09-23T18:04:30;12.90;99.90
58161;DHT22;49345;47.428;9.892;2022-09-23T18:06:56;12.80;99.90
58161;DHT22;49345;47.428;9.892;2022-09-23T18:09:21;12.80;99.90
58161;DHT22;49345;47.428;9.892;2022-09-23T18:11:47;12.80;99.90
58161;DHT22;49345;47.428;9.892;2022-09-23T18:16:55;12.60;99.90
58161;DHT22;49345;47.428;9.892;2022-09-23T18:19:21;12.60;99.90
58161;DHT22;49345;47.428;9.892;2022-09-23T18:21:48;12.50;99.90
58161;DHT22;49345;47.428;9.892;2022-09-23T18:24:14;12.50;99.90
58161;DHT22;49345;47.428;9.892;2022-09-23T18:26:40;12.40;99.90
58161;DHT22;49345;47.428;9.892;2022-09-23T18:29:07;12.30;99.90
58161;DHT22;49345;47.428;9.892;2022-09-23T18:31:33;12.30;99.90
58161;DHT22;49345;47.428;9.892;2022-09-23T18:34:00;12.20;99.90
58161;DHT22;49345;47.428;9.892;2022-09-23T18:36:25;12.20;99.90
58161;DHT22;49345;47.428;9.892;2022-09-23T18:38:52;12.20;99.90
58161;DHT22;49345;47.428;9.892;2022-09-23T18:41:18;12.20;99.90
58161;DHT22;49345;47.428;9.892;2022-09-23T18:43:43;12.10;99.90
58161;DHT22;49345;47.428;9.892;2022-09-23T18:46:10;12.10;99.90